createdAt,value
2023-04-05T00:01:21.683Z,98648.81
2023-04-05T00:05:30.374Z,98647.16
2023-04-05T00:09:32.377Z,98645.38
2023-04-05T00:13:34.410Z,98641.91
2023-04-05T00:17:36.443Z,98645.38
2023-04-05T00:21:39.584Z,98641.03
2023-04-05T00:25:41.585Z,98648.72
2023-04-05T00:29:43.578Z,98647.88
2023-04-05T00:33:46.410Z,98638.34
2023-04-05T00:37:48.490Z,98642.59
2023-04-05T00:41:50.545Z,98639.94
2023-04-05T00:45:53.291Z,98637.25
2023-04-05T00:49:55.422Z,98628.66
2023-04-05T00:53:57.907Z,98627.84
2023-04-05T00:58:00.486Z,98619.22
2023-04-05T01:02:17.097Z,98617.50
2023-04-05T01:06:44.168Z,98617.50
2023-04-05T01:10:55.210Z,98614.06
2023-04-05T01:14:57.584Z,98616.63
2023-04-05T01:18:59.739Z,98607.19
2023-04-05T01:23:16.478Z,98607.16
2023-04-05T01:27:45.760Z,98601.94
2023-04-05T01:31:54.369Z,98603.56
2023-04-05T01:36:08.758Z,98598.28
2023-04-05T01:40:11.309Z,98595.72
2023-04-05T01:44:13.297Z,98596.53
2023-04-05T01:48:15.329Z,98599.09
2023-04-05T01:52:18.098Z,98589.59
2023-04-05T01:56:20.879Z,98592.13
2023-04-05T02:00:23.264Z,98585.25
2023-04-05T02:04:26.298Z,98583.50
2023-04-05T02:08:28.348Z,98582.69
2023-04-05T02:12:30.522Z,98586.91
2023-04-05T02:16:34.163Z,98580.88
2023-04-05T02:20:36.289Z,98583.41
2023-04-05T02:24:38.350Z,98577.25
2023-04-05T02:28:40.695Z,98580.66
2023-04-05T02:32:42.744Z,98583.25
2023-04-05T02:36:45.240Z,98583.16
2023-04-05T02:40:49.453Z,98591.50
2023-04-05T02:44:52.547Z,98587.13
2023-04-05T02:48:56.356Z,98590.63
2023-04-05T02:53:00.800Z,98582.84
2023-04-05T02:57:04.383Z,98568.19
2023-04-05T03:01:17.736Z,98579.41
2023-04-05T03:05:22.538Z,98572.59
2023-04-05T03:09:27.602Z,98570.88
2023-04-05T03:13:34.079Z,98569.22
2023-04-05T03:17:38.751Z,98576.13
2023-04-05T03:21:42.122Z,98583.59
2023-04-05T03:26:01.640Z,98570.59
2023-04-05T03:30:07.604Z,98579.06
2023-04-05T03:34:14.640Z,98577.28
2023-04-05T03:38:21.383Z,98580.75
2023-04-05T03:42:41.520Z,98573.13
2023-04-05T03:46:43.991Z,98565.22
2023-04-05T03:50:48.992Z,98565.13
2023-04-05T03:54:51.412Z,98560.06
2023-04-05T03:58:57.445Z,98559.25
2023-04-05T04:03:04.100Z,98553.31
2023-04-05T04:07:06.341Z,98558.34
2023-04-05T04:11:09.296Z,98553.13
2023-04-05T04:15:14.174Z,98549.53
2023-04-05T04:19:33.219Z,98559.59
2023-04-05T04:23:40.599Z,98566.34
2023-04-05T04:28:21.187Z,98560.13
2023-04-05T04:32:52.054Z,98568.53
2023-04-05T04:37:17.789Z,98562.56
2023-04-05T04:41:47.010Z,98562.53
2023-04-05T04:46:11.726Z,98559.94
2023-04-05T04:50:28.640Z,98559.28
2023-04-05T04:54:34.140Z,98560.09
2023-04-05T04:58:36.127Z,98555.75
2023-04-05T05:02:44.066Z,98551.50
2023-04-05T05:06:53.992Z,98558.56
2023-04-05T05:10:56.551Z,98568.03
2023-04-05T05:14:58.865Z,98566.34
2023-04-05T05:19:01.574Z,98561.38
2023-04-05T05:23:13.325Z,98568.34
2023-04-05T05:27:15.483Z,98570.13
2023-04-05T05:31:17.841Z,98567.44
2023-04-05T05:35:20.096Z,98557.91
2023-04-05T05:39:23.443Z,98560.66
2023-04-05T05:43:25.848Z,98566.09
2023-04-05T05:47:27.986Z,98563.78
2023-04-05T05:51:30.061Z,98557.91
2023-04-05T05:55:32.114Z,98555.53
2023-04-05T05:59:34.138Z,98559.16
2023-04-05T06:03:36.267Z,98561.00
2023-04-05T06:07:38.481Z,98566.28
2023-04-05T06:11:53.307Z,98565.56
2023-04-05T06:15:57.586Z,98565.66
2023-04-05T06:19:59.602Z,98559.53
2023-04-05T06:24:01.636Z,98547.72
2023-04-05T06:28:05.226Z,98552.25
2023-04-05T06:32:07.272Z,98545.19
2023-04-05T06:36:09.795Z,98532.22
2023-04-05T06:40:12.551Z,98529.50
2023-04-05T06:44:14.569Z,98522.22
2023-04-05T06:48:16.612Z,98527.69
2023-04-05T06:52:18.592Z,98528.72
2023-04-05T06:56:21.647Z,98528.41
2023-04-05T07:00:23.758Z,98531.25
2023-04-05T07:04:26.696Z,98546.53
2023-04-05T07:08:31.411Z,98539.47
2023-04-05T07:12:33.408Z,98545.50
2023-04-05T07:16:35.584Z,98540.94
2023-04-05T07:20:38.007Z,98536.75
2023-04-05T07:24:40.084Z,98531.63
2023-04-05T07:28:42.308Z,98543.78
2023-04-05T07:32:44.415Z,98529.13
2023-04-05T07:36:47.000Z,98545.53
2023-04-05T07:40:50.170Z,98545.50
2023-04-05T07:44:52.117Z,98539.44
2023-04-05T07:48:54.425Z,98545.44
2023-04-05T07:52:56.420Z,98533.28
2023-04-05T07:56:58.501Z,98544.41
2023-04-05T08:01:04.894Z,98541.72
2023-04-05T08:05:07.339Z,98537.38
2023-04-05T08:09:10.714Z,98545.94
2023-04-05T08:13:12.764Z,98524.28
2023-04-05T08:17:16.209Z,98528.44
2023-04-05T08:21:18.182Z,98539.59
2023-04-05T08:25:20.339Z,98530.09
2023-04-05T08:29:22.349Z,98521.38
2023-04-05T08:33:26.412Z,98518.69
2023-04-05T08:37:28.495Z,98524.66
2023-04-05T08:41:37.365Z,98523.78
2023-04-05T08:45:46.734Z,98520.28
2023-04-05T08:49:49.014Z,98519.31
2023-04-05T08:53:51.218Z,98521.00
2023-04-05T08:57:58.925Z,98514.06
2023-04-05T09:02:04.100Z,98515.84
2023-04-05T09:06:09.120Z,98517.44
2023-04-05T09:10:13.535Z,98518.19
2023-04-05T09:14:16.589Z,98518.13
2023-04-05T09:18:26.165Z,98511.16
2023-04-05T09:22:29.411Z,98510.22
2023-04-05T09:26:32.500Z,98516.97
2023-04-05T09:30:37.263Z,98503.03
2023-04-05T09:34:42.135Z,98505.59
2023-04-05T09:38:51.239Z,98508.19
2023-04-05T09:42:53.996Z,98517.66
2023-04-05T09:46:56.008Z,98511.47
2023-04-05T09:51:12.525Z,98502.53
2023-04-05T09:55:26.752Z,98502.47
2023-04-05T09:59:28.986Z,98509.53
2023-04-05T10:03:31.128Z,98509.53
2023-04-05T10:07:34.506Z,98500.81
2023-04-05T10:11:38.597Z,98506.78
2023-04-05T10:15:45.725Z,98492.84
2023-04-05T10:19:56.581Z,98499.06
2023-04-05T10:24:10.357Z,98487.72
2023-04-05T10:28:22.273Z,98489.91
2023-04-05T10:32:38.656Z,98481.78
2023-04-05T10:37:03.277Z,98484.16
2023-04-05T10:41:14.957Z,98477.03
2023-04-05T10:45:19.848Z,98468.97
2023-04-05T10:49:39.860Z,98471.56
2023-04-05T10:53:42.212Z,98471.66
2023-04-05T10:57:46.166Z,98464.44
2023-04-05T11:01:48.737Z,98455.59
2023-04-05T11:06:22.596Z,98458.81
2023-04-05T11:10:25.316Z,98453.50
2023-04-05T11:14:37.356Z,98453.03
2023-04-05T11:18:46.179Z,98446.47
2023-04-05T11:22:54.324Z,98442.09
2023-04-05T11:26:56.681Z,98440.22
2023-04-05T11:31:12.867Z,98438.13
2023-04-05T11:35:25.042Z,98434.31
2023-04-05T11:39:27.752Z,98436.72
2023-04-05T11:43:30.160Z,98434.25
2023-04-05T11:47:36.903Z,98431.81
2023-04-05T11:51:42.682Z,98424.00
2023-04-05T11:55:46.882Z,98423.56
2023-04-05T11:59:53.253Z,98412.31
2023-04-05T12:03:56.578Z,98406.69
2023-04-05T12:07:58.644Z,98402.75
2023-04-05T12:12:00.622Z,98396.94
2023-04-05T12:16:07.599Z,98390.91
2023-04-05T12:20:11.623Z,98393.00
2023-04-05T12:24:13.890Z,98389.84
2023-04-05T12:28:16.123Z,98392.00
2023-04-05T12:32:18.497Z,98380.53
2023-04-05T12:36:23.490Z,98374.13
2023-04-05T12:40:25.783Z,98375.59
2023-04-05T12:44:30.056Z,98372.56
2023-04-05T12:48:32.074Z,98369.63
2023-04-05T12:52:34.086Z,98359.69
2023-04-05T12:56:38.256Z,98354.19
2023-04-05T13:00:40.837Z,98354.28
2023-04-05T13:04:42.948Z,98348.25
2023-04-05T13:08:44.944Z,98348.44
2023-04-05T13:12:47.415Z,98335.78
2023-04-05T13:16:49.394Z,98322.53
2023-04-05T13:20:51.441Z,98321.16
2023-04-05T13:24:53.898Z,98318.38
2023-04-05T13:28:55.947Z,98313.81
2023-04-05T13:32:58.118Z,98311.50
2023-04-05T13:37:00.378Z,98316.88
2023-04-05T13:41:02.399Z,98310.34
2023-04-05T13:45:05.269Z,98311.75
2023-04-05T13:49:07.244Z,98301.00
2023-04-05T13:53:09.350Z,98293.66
2023-04-05T13:57:11.952Z,98288.41
2023-04-05T14:01:13.988Z,98295.84
2023-04-05T14:05:17.096Z,98295.53
2023-04-05T14:09:19.102Z,98288.97
2023-04-05T14:13:21.388Z,98283.72
2023-04-05T14:17:23.488Z,98285.28
2023-04-05T14:21:26.180Z,98283.88
2023-04-05T14:25:28.149Z,98283.47
2023-04-05T14:29:30.168Z,98269.50
2023-04-05T14:33:32.139Z,98267.53
2023-04-05T14:37:34.136Z,98260.19
2023-04-05T14:41:36.435Z,98250.06
2023-04-05T14:45:38.638Z,98249.63
2023-04-05T14:49:40.733Z,98252.38
2023-04-05T14:53:42.854Z,98254.16
2023-04-05T14:57:44.942Z,98245.69
2023-04-05T15:01:47.321Z,98245.00
2023-04-05T15:05:49.426Z,98249.44
2023-04-05T15:09:51.566Z,98237.69
2023-04-05T15:13:53.699Z,98240.38
2023-04-05T15:17:55.898Z,98240.66
2023-04-05T15:21:58.002Z,98240.78
2023-04-05T15:25:59.988Z,98236.94
2023-04-05T15:30:02.129Z,98236.78
2023-04-05T15:34:05.301Z,98233.81
2023-04-05T15:38:08.347Z,98231.59
2023-04-05T15:42:10.601Z,98232.28
2023-04-05T15:46:12.620Z,98227.50
2023-04-05T15:50:14.660Z,98229.78
2023-04-05T15:54:18.849Z,98235.56
2023-04-05T15:58:21.011Z,98229.41
2023-04-05T16:02:23.242Z,98241.63
2023-04-05T16:06:28.131Z,98232.25
2023-04-05T16:10:30.223Z,98233.41
2023-04-05T16:14:32.815Z,98232.13
2023-04-05T16:18:34.800Z,98235.97
2023-04-05T16:22:36.977Z,98230.88
2023-04-05T16:26:38.941Z,98228.63
2023-04-05T16:30:41.638Z,98216.22
2023-04-05T16:34:43.715Z,98221.03
2023-04-05T16:38:47.477Z,98220.13
2023-04-05T16:42:49.516Z,98219.22
2023-04-05T16:46:52.326Z,98217.22
2023-04-05T16:50:54.328Z,98221.03
2023-04-05T16:54:57.311Z,98221.78
2023-04-05T16:58:59.495Z,98223.88
2023-04-05T17:03:01.971Z,98224.00
2023-04-05T17:07:04.095Z,98220.53
2023-04-05T17:11:06.747Z,98218.97
2023-04-05T17:15:10.436Z,98226.22
2023-04-05T17:19:12.436Z,98210.06
2023-04-05T17:23:14.493Z,98219.72
2023-04-05T17:27:16.505Z,98216.28
2023-04-05T17:31:19.304Z,98225.00
2023-04-05T17:35:21.607Z,98219.91
2023-04-05T17:39:25.474Z,98228.00
2023-04-05T17:43:27.513Z,98226.59
2023-04-05T17:47:29.593Z,98218.97
2023-04-05T17:51:32.334Z,98222.63
2023-04-05T17:55:34.392Z,98216.00
2023-04-05T17:59:36.448Z,98224.03
2023-04-05T18:03:38.557Z,98220.06
2023-04-05T18:07:42.439Z,98224.09
2023-04-05T18:11:44.460Z,98229.06
2023-04-05T18:15:46.554Z,98226.78
2023-04-05T18:19:49.425Z,98234.06
2023-04-05T18:23:52.732Z,98233.59
2023-04-05T18:27:55.889Z,98240.13
2023-04-05T18:31:58.062Z,98231.84
2023-04-05T18:36:00.273Z,98235.72
2023-04-05T18:40:06.234Z,98235.13
2023-04-05T18:44:09.063Z,98254.28
2023-04-05T18:48:11.426Z,98248.34
2023-04-05T18:52:13.522Z,98257.09
2023-04-05T18:56:16.348Z,98258.00
2023-04-05T19:00:18.537Z,98263.59
2023-04-05T19:04:20.699Z,98268.13
2023-04-05T19:08:22.733Z,98264.75
2023-04-05T19:12:24.747Z,98265.78
2023-04-05T19:16:26.927Z,98274.63
2023-04-05T19:20:28.936Z,98282.53
2023-04-05T19:24:31.134Z,98282.63
2023-04-05T19:28:33.178Z,98274.88
2023-04-05T19:32:35.264Z,98281.06
2023-04-05T19:36:38.079Z,98282.91
2023-04-05T19:40:42.124Z,98284.72
2023-04-05T19:44:54.957Z,98284.81
2023-04-05T19:49:07.642Z,98284.97
2023-04-05T19:53:09.777Z,98276.38
2023-04-05T19:57:17.830Z,98274.59
2023-04-05T20:01:29.167Z,98285.94
2023-04-05T20:05:43.430Z,98290.31
2023-04-05T20:09:45.536Z,98279.97
2023-04-05T20:13:49.150Z,98278.25
2023-04-05T20:17:51.387Z,98278.34
2023-04-05T20:21:53.442Z,98282.72
2023-04-05T20:25:55.852Z,98278.53
2023-04-05T20:29:57.864Z,98276.94
2023-04-05T20:34:12.620Z,98265.72
2023-04-05T20:38:14.577Z,98265.78
2023-04-05T20:42:16.587Z,98265.84
2023-04-05T20:46:18.588Z,98263.28
2023-04-05T20:50:20.580Z,98271.13
2023-04-05T20:54:22.913Z,98263.41
2023-04-05T20:58:24.963Z,98256.66
2023-04-05T21:02:27.015Z,98260.31
2023-04-05T21:06:29.064Z,98263.81
2023-04-05T21:10:32.578Z,98257.75
2023-04-05T21:14:34.541Z,98259.53
2023-04-05T21:18:36.607Z,98259.56
2023-04-05T21:22:38.655Z,98260.47
2023-04-05T21:26:40.619Z,98258.81
2023-04-05T21:30:43.226Z,98255.44
2023-04-05T21:34:45.352Z,98257.25
2023-04-05T21:38:47.334Z,98249.47
2023-04-05T21:42:49.322Z,98251.22
2023-04-05T21:46:51.329Z,98252.06
2023-04-05T21:50:53.395Z,98252.00
2023-04-05T21:54:55.632Z,98252.94
2023-04-05T21:58:57.693Z,98258.94
2023-04-05T22:03:00.130Z,98251.19
2023-04-05T22:07:02.211Z,98252.06
2023-04-05T22:11:04.196Z,98257.31
2023-04-05T22:15:06.659Z,98260.75
2023-04-05T22:19:11.638Z,98253.03
2023-04-05T22:23:13.617Z,98257.31
2023-04-05T22:27:15.715Z,98251.28
2023-04-05T22:31:17.700Z,98265.06
2023-04-05T22:35:19.683Z,98254.75
2023-04-05T22:39:21.713Z,98265.97
2023-04-05T22:43:24.053Z,98259.06
2023-04-05T22:47:26.435Z,98260.81
2023-04-05T22:51:29.449Z,98263.38
2023-04-05T22:55:31.426Z,98258.22
2023-04-05T22:59:33.477Z,98246.16
2023-04-05T23:03:35.734Z,98251.31
2023-04-05T23:07:37.794Z,98248.75
2023-04-05T23:11:39.822Z,98247.03
2023-04-05T23:15:41.865Z,98245.31
2023-04-05T23:19:44.076Z,98242.72
2023-04-05T23:23:46.088Z,98247.88
2023-04-05T23:27:48.149Z,98249.63
2023-04-05T23:31:50.318Z,98249.59
2023-04-05T23:35:52.459Z,98241.00
2023-04-05T23:39:54.463Z,98240.13
2023-04-05T23:43:56.839Z,98244.41
2023-04-05T23:47:58.856Z,98243.56
2023-04-05T23:52:00.901Z,98229.84
2023-04-05T23:56:03.067Z,98229.81
